sensor_id;sensor_type;location;lat;lon;timestamp;P1;durP1;ratioP1;P2;durP2;ratioP2
83781;SDS011;73783;49.924;15.466;2023-11-22T00:00:14;7.68;;;4.43;;
83781;SDS011;73783;49.924;15.466;2023-11-22T00:03:00;8.15;;;4.63;;
83781;SDS011;73783;49.924;15.466;2023-11-22T00:05:25;7.28;;;4.53;;
83781;SDS011;73783;49.924;15.466;2023-11-22T00:07:51;9.60;;;5.50;;
83781;SDS011;73783;49.924;15.466;2023-11-22T00:10:17;7.47;;;5.07;;
83781;SDS011;73783;49.924;15.466;2023-11-22T00:12:43;8.70;;;4.60;;
83781;SDS011;73783;49.924;15.466;2023-11-22T00:15:08;8.05;;;5.57;;
83781;SDS011;73783;49.924;15.466;2023-11-22T00:17:36;9.15;;;5.72;;
83781;SDS011;73783;49.924;15.466;2023-11-22T00:20:02;11.90;;;5.88;;
83781;SDS011;73783;49.924;15.466;2023-11-22T00:22:33;9.02;;;5.88;;
83781;SDS011;73783;49.924;15.466;2023-11-22T00:25:03;8.15;;;4.68;;
83781;SDS011;73783;49.924;15.466;2023-11-22T00:27:29;7.82;;;5.15;;
83781;SDS011;73783;49.924;15.466;2023-11-22T00:29:58;8.05;;;4.63;;
83781;SDS011;73783;49.924;15.466;2023-11-22T00:32:24;6.38;;;3.80;;
83781;SDS011;73783;49.924;15.466;2023-11-22T00:34:51;6.95;;;3.92;;
83781;SDS011;73783;49.924;15.466;2023-11-22T00:37:17;6.80;;;3.88;;
83781;SDS011;73783;49.924;15.466;2023-11-22T00:39:43;9.55;;;4.93;;
83781;SDS011;73783;49.924;15.466;2023-11-22T00:42:08;6.90;;;3.95;;
83781;SDS011;73783;49.924;15.466;2023-11-22T00:44:34;7.35;;;5.20;;
83781;SDS011;73783;49.924;15.466;2023-11-22T00:47:01;11.02;;;7.97;;
83781;SDS011;73783;49.924;15.466;2023-11-22T00:49:27;9.38;;;5.40;;
83781;SDS011;73783;49.924;15.466;2023-11-22T00:51:53;9.48;;;4.82;;
83781;SDS011;73783;49.924;15.466;2023-11-22T00:54:18;10.00;;;5.53;;
83781;SDS011;73783;49.924;15.466;2023-11-22T00:56:45;11.27;;;6.72;;
83781;SDS011;73783;49.924;15.466;2023-11-22T00:59:11;8.82;;;5.57;;
83781;SDS011;73783;49.924;15.466;2023-11-22T01:01:37;7.93;;;5.20;;
83781;SDS011;73783;49.924;15.466;2023-11-22T01:04:03;12.35;;;6.40;;
83781;SDS011;73783;49.924;15.466;2023-11-22T01:06:30;11.35;;;7.13;;
83781;SDS011;73783;49.924;15.466;2023-11-22T01:08:57;12.65;;;7.32;;
83781;SDS011;73783;49.924;15.466;2023-11-22T01:11:23;12.85;;;8.07;;
83781;SDS011;73783;49.924;15.466;2023-11-22T01:13:48;14.07;;;8.35;;
83781;SDS011;73783;49.924;15.466;2023-11-22T01:16:14;14.65;;;8.10;;
83781;SDS011;73783;49.924;15.466;2023-11-22T01:18:41;12.68;;;7.25;;
83781;SDS011;73783;49.924;15.466;2023-11-22T01:21:07;14.25;;;8.10;;
83781;SDS011;73783;49.924;15.466;2023-11-22T01:23:33;14.45;;;8.60;;
83781;SDS011;73783;49.924;15.466;2023-11-22T01:25:59;16.30;;;8.25;;
83781;SDS011;73783;49.924;15.466;2023-11-22T01:28:25;15.88;;;8.18;;
83781;SDS011;73783;49.924;15.466;2023-11-22T01:30:53;12.95;;;6.85;;
83781;SDS011;73783;49.924;15.466;2023-11-22T01:33:20;14.45;;;8.20;;
83781;SDS011;73783;49.924;15.466;2023-11-22T01:35:46;15.27;;;8.15;;
83781;SDS011;73783;49.924;15.466;2023-11-22T01:38:11;19.10;;;9.02;;
83781;SDS011;73783;49.924;15.466;2023-11-22T01:40:47;15.40;;;8.23;;
83781;SDS011;73783;49.924;15.466;2023-11-22T01:43:19;20.23;;;8.00;;
83781;SDS011;73783;49.924;15.466;2023-11-22T01:45:46;13.05;;;7.05;;
83781;SDS011;73783;49.924;15.466;2023-11-22T01:48:12;14.52;;;8.65;;
83781;SDS011;73783;49.924;15.466;2023-11-22T01:50:38;14.05;;;8.63;;
83781;SDS011;73783;49.924;15.466;2023-11-22T01:53:05;12.27;;;7.15;;
83781;SDS011;73783;49.924;15.466;2023-11-22T01:55:35;14.93;;;8.93;;
83781;SDS011;73783;49.924;15.466;2023-11-22T01:58:01;16.13;;;8.60;;
83781;SDS011;73783;49.924;15.466;2023-11-22T02:00:51;19.17;;;8.63;;
83781;SDS011;73783;49.924;15.466;2023-11-22T02:03:17;15.07;;;8.68;;
83781;SDS011;73783;49.924;15.466;2023-11-22T02:05:43;16.42;;;8.40;;
83781;SDS011;73783;49.924;15.466;2023-11-22T02:08:10;15.73;;;9.50;;
83781;SDS011;73783;49.924;15.466;2023-11-22T02:10:37;19.58;;;10.75;;
83781;SDS011;73783;49.924;15.466;2023-11-22T02:13:03;16.80;;;9.02;;
83781;SDS011;73783;49.924;15.466;2023-11-22T02:15:32;18.63;;;9.65;;
83781;SDS011;73783;49.924;15.466;2023-11-22T02:17:57;16.40;;;9.63;;
83781;SDS011;73783;49.924;15.466;2023-11-22T02:20:23;13.52;;;8.82;;
83781;SDS011;73783;49.924;15.466;2023-11-22T02:22:48;15.05;;;8.95;;
83781;SDS011;73783;49.924;15.466;2023-11-22T02:25:15;14.27;;;8.20;;
83781;SDS011;73783;49.924;15.466;2023-11-22T02:27:41;18.38;;;8.70;;
83781;SDS011;73783;49.924;15.466;2023-11-22T02:30:08;19.63;;;9.85;;
83781;SDS011;73783;49.924;15.466;2023-11-22T02:32:34;14.90;;;8.50;;
83781;SDS011;73783;49.924;15.466;2023-11-22T02:34:59;17.13;;;10.48;;
83781;SDS011;73783;49.924;15.466;2023-11-22T02:37:26;15.25;;;8.50;;
83781;SDS011;73783;49.924;15.466;2023-11-22T02:39:58;16.15;;;8.35;;
83781;SDS011;73783;49.924;15.466;2023-11-22T02:42:30;16.13;;;9.60;;
83781;SDS011;73783;49.924;15.466;2023-11-22T02:44:55;16.73;;;9.88;;
83781;SDS011;73783;49.924;15.466;2023-11-22T02:47:22;16.77;;;9.82;;
83781;SDS011;73783;49.924;15.466;2023-11-22T02:49:48;17.20;;;9.25;;
83781;SDS011;73783;49.924;15.466;2023-11-22T02:52:14;18.67;;;9.60;;
83781;SDS011;73783;49.924;15.466;2023-11-22T02:54:43;19.42;;;9.48;;
83781;SDS011;73783;49.924;15.466;2023-11-22T02:57:10;16.25;;;9.60;;
83781;SDS011;73783;49.924;15.466;2023-11-22T02:59:37;15.02;;;9.55;;
83781;SDS011;73783;49.924;15.466;2023-11-22T03:02:06;15.73;;;8.77;;
83781;SDS011;73783;49.924;15.466;2023-11-22T03:04:32;15.10;;;9.02;;
83781;SDS011;73783;49.924;15.466;2023-11-22T03:06:59;17.63;;;10.05;;
83781;SDS011;73783;49.924;15.466;2023-11-22T03:09:25;15.95;;;9.60;;
83781;SDS011;73783;49.924;15.466;2023-11-22T03:11:51;15.55;;;9.73;;
83781;SDS011;73783;49.924;15.466;2023-11-22T03:14:18;17.50;;;9.05;;
83781;SDS011;73783;49.924;15.466;2023-11-22T03:16:44;14.57;;;8.57;;
83781;SDS011;73783;49.924;15.466;2023-11-22T03:19:11;14.15;;;8.20;;
83781;SDS011;73783;49.924;15.466;2023-11-22T03:21:38;18.48;;;9.45;;
83781;SDS011;73783;49.924;15.466;2023-11-22T03:24:07;16.45;;;9.13;;
83781;SDS011;73783;49.924;15.466;2023-11-22T03:26:33;14.88;;;8.40;;
83781;SDS011;73783;49.924;15.466;2023-11-22T03:28:59;16.73;;;10.40;;
83781;SDS011;73783;49.924;15.466;2023-11-22T03:31:26;19.00;;;9.05;;
83781;SDS011;73783;49.924;15.466;2023-11-22T03:33:53;14.43;;;8.63;;
83781;SDS011;73783;49.924;15.466;2023-11-22T03:36:19;15.82;;;9.38;;
83781;SDS011;73783;49.924;15.466;2023-11-22T03:38:46;14.63;;;8.25;;
83781;SDS011;73783;49.924;15.466;2023-11-22T03:41:11;15.48;;;9.32;;
83781;SDS011;73783;49.924;15.466;2023-11-22T03:43:37;19.08;;;9.50;;
83781;SDS011;73783;49.924;15.466;2023-11-22T03:46:03;20.75;;;9.95;;
83781;SDS011;73783;49.924;15.466;2023-11-22T03:48:28;14.07;;;9.18;;
83781;SDS011;73783;49.924;15.466;2023-11-22T03:50:54;20.65;;;11.88;;
83781;SDS011;73783;49.924;15.466;2023-11-22T03:53:20;18.23;;;10.40;;
83781;SDS011;73783;49.924;15.466;2023-11-22T03:55:47;19.00;;;10.25;;
83781;SDS011;73783;49.924;15.466;2023-11-22T03:58:13;29.80;;;12.70;;
83781;SDS011;73783;49.924;15.466;2023-11-22T04:00:39;22.05;;;10.65;;
83781;SDS011;73783;49.924;15.466;2023-11-22T04:03:05;18.17;;;12.57;;
83781;SDS011;73783;49.924;15.466;2023-11-22T04:05:30;16.88;;;10.45;;
83781;SDS011;73783;49.924;15.466;2023-11-22T04:07:57;22.08;;;11.82;;
83781;SDS011;73783;49.924;15.466;2023-11-22T04:10:22;21.23;;;10.35;;
83781;SDS011;73783;49.924;15.466;2023-11-22T04:12:49;21.17;;;11.07;;
83781;SDS011;73783;49.924;15.466;2023-11-22T04:15:14;21.25;;;11.65;;
83781;SDS011;73783;49.924;15.466;2023-11-22T04:17:41;20.98;;;12.20;;
83781;SDS011;73783;49.924;15.466;2023-11-22T04:20:07;20.48;;;12.18;;
83781;SDS011;73783;49.924;15.466;2023-11-22T04:22:40;21.48;;;12.35;;
83781;SDS011;73783;49.924;15.466;2023-11-22T04:25:06;25.67;;;13.55;;
83781;SDS011;73783;49.924;15.466;2023-11-22T04:27:34;21.33;;;11.32;;
83781;SDS011;73783;49.924;15.466;2023-11-22T04:29:59;20.40;;;11.52;;
83781;SDS011;73783;49.924;15.466;2023-11-22T04:32:25;18.98;;;10.77;;
83781;SDS011;73783;49.924;15.466;2023-11-22T04:34:51;23.17;;;10.93;;
83781;SDS011;73783;49.924;15.466;2023-11-22T04:37:17;21.23;;;10.82;;
83781;SDS011;73783;49.924;15.466;2023-11-22T04:39:43;20.88;;;10.35;;
83781;SDS011;73783;49.924;15.466;2023-11-22T04:42:09;15.73;;;9.95;;
83781;SDS011;73783;49.924;15.466;2023-11-22T04:44:34;19.77;;;10.45;;
83781;SDS011;73783;49.924;15.466;2023-11-22T04:47:00;22.05;;;12.35;;
83781;SDS011;73783;49.924;15.466;2023-11-22T04:49:26;21.95;;;13.00;;
83781;SDS011;73783;49.924;15.466;2023-11-22T04:51:52;19.05;;;11.00;;
83781;SDS011;73783;49.924;15.466;2023-11-22T04:54:18;22.50;;;12.65;;
83781;SDS011;73783;49.924;15.466;2023-11-22T04:56:43;22.58;;;11.50;;
83781;SDS011;73783;49.924;15.466;2023-11-22T04:59:09;20.42;;;11.00;;
83781;SDS011;73783;49.924;15.466;2023-11-22T05:01:35;17.30;;;10.70;;
83781;SDS011;73783;49.924;15.466;2023-11-22T05:04:01;19.13;;;11.40;;
83781;SDS011;73783;49.924;15.466;2023-11-22T05:06:27;23.00;;;12.90;;
83781;SDS011;73783;49.924;15.466;2023-11-22T05:08:54;22.50;;;12.05;;
83781;SDS011;73783;49.924;15.466;2023-11-22T05:11:20;23.45;;;12.50;;
83781;SDS011;73783;49.924;15.466;2023-11-22T05:13:46;20.33;;;11.75;;
83781;SDS011;73783;49.924;15.466;2023-11-22T05:16:12;21.90;;;12.70;;
83781;SDS011;73783;49.924;15.466;2023-11-22T05:18:38;23.20;;;12.23;;
83781;SDS011;73783;49.924;15.466;2023-11-22T05:21:04;26.15;;;13.27;;
83781;SDS011;73783;49.924;15.466;2023-11-22T05:23:30;25.45;;;14.02;;
83781;SDS011;73783;49.924;15.466;2023-11-22T05:25:57;21.60;;;11.73;;
83781;SDS011;73783;49.924;15.466;2023-11-22T05:28:25;26.30;;;12.68;;
83781;SDS011;73783;49.924;15.466;2023-11-22T05:30:51;24.13;;;13.05;;
83781;SDS011;73783;49.924;15.466;2023-11-22T05:33:16;25.20;;;13.75;;
83781;SDS011;73783;49.924;15.466;2023-11-22T05:35:42;28.05;;;15.05;;
83781;SDS011;73783;49.924;15.466;2023-11-22T05:38:08;24.77;;;13.95;;
83781;SDS011;73783;49.924;15.466;2023-11-22T05:40:34;22.50;;;12.88;;
83781;SDS011;73783;49.924;15.466;2023-11-22T05:42:59;21.35;;;12.48;;
83781;SDS011;73783;49.924;15.466;2023-11-22T05:45:25;25.25;;;12.90;;
83781;SDS011;73783;49.924;15.466;2023-11-22T05:47:51;25.20;;;12.15;;
83781;SDS011;73783;49.924;15.466;2023-11-22T05:50:17;24.48;;;12.65;;
83781;SDS011;73783;49.924;15.466;2023-11-22T05:52:43;24.55;;;13.43;;
83781;SDS011;73783;49.924;15.466;2023-11-22T05:55:10;28.30;;;14.25;;
83781;SDS011;73783;49.924;15.466;2023-11-22T05:57:39;22.67;;;12.48;;
83781;SDS011;73783;49.924;15.466;2023-11-22T06:00:06;26.70;;;15.93;;
83781;SDS011;73783;49.924;15.466;2023-11-22T06:02:33;25.15;;;13.00;;
83781;SDS011;73783;49.924;15.466;2023-11-22T06:04:59;23.67;;;13.05;;
83781;SDS011;73783;49.924;15.466;2023-11-22T06:07:25;25.23;;;14.52;;
83781;SDS011;73783;49.924;15.466;2023-11-22T06:09:52;26.88;;;15.73;;
83781;SDS011;73783;49.924;15.466;2023-11-22T06:12:18;30.00;;;14.00;;
83781;SDS011;73783;49.924;15.466;2023-11-22T06:14:46;26.30;;;14.65;;
83781;SDS011;73783;49.924;15.466;2023-11-22T06:17:12;33.67;;;14.77;;
83781;SDS011;73783;49.924;15.466;2023-11-22T06:19:39;28.02;;;14.43;;
83781;SDS011;73783;49.924;15.466;2023-11-22T06:22:06;28.10;;;15.25;;
83781;SDS011;73783;49.924;15.466;2023-11-22T06:24:33;26.40;;;15.35;;
83781;SDS011;73783;49.924;15.466;2023-11-22T06:27:01;25.33;;;14.57;;
83781;SDS011;73783;49.924;15.466;2023-11-22T06:29:27;25.05;;;13.55;;
83781;SDS011;73783;49.924;15.466;2023-11-22T06:31:54;22.83;;;12.75;;
83781;SDS011;73783;49.924;15.466;2023-11-22T06:34:20;26.50;;;14.38;;
83781;SDS011;73783;49.924;15.466;2023-11-22T06:36:45;23.63;;;13.48;;
83781;SDS011;73783;49.924;15.466;2023-11-22T06:39:11;22.77;;;12.68;;
83781;SDS011;73783;49.924;15.466;2023-11-22T06:41:40;27.02;;;13.38;;
83781;SDS011;73783;49.924;15.466;2023-11-22T06:44:07;25.83;;;14.70;;
83781;SDS011;73783;49.924;15.466;2023-11-22T06:46:32;23.65;;;13.23;;
83781;SDS011;73783;49.924;15.466;2023-11-22T06:48:58;27.50;;;13.30;;
83781;SDS011;73783;49.924;15.466;2023-11-22T06:51:24;26.02;;;13.73;;
83781;SDS011;73783;49.924;15.466;2023-11-22T06:53:50;24.02;;;12.23;;
83781;SDS011;73783;49.924;15.466;2023-11-22T06:56:17;23.25;;;12.07;;
83781;SDS011;73783;49.924;15.466;2023-11-22T06:58:43;22.48;;;13.02;;
83781;SDS011;73783;49.924;15.466;2023-11-22T07:01:08;25.55;;;12.77;;
83781;SDS011;73783;49.924;15.466;2023-11-22T07:03:36;23.75;;;13.18;;
83781;SDS011;73783;49.924;15.466;2023-11-22T07:06:03;27.98;;;12.88;;
83781;SDS011;73783;49.924;15.466;2023-11-22T07:08:29;26.60;;;13.82;;
83781;SDS011;73783;49.924;15.466;2023-11-22T07:10:55;23.27;;;13.90;;
83781;SDS011;73783;49.924;15.466;2023-11-22T07:13:22;26.08;;;13.30;;
83781;SDS011;73783;49.924;15.466;2023-11-22T07:15:49;27.65;;;15.20;;
83781;SDS011;73783;49.924;15.466;2023-11-22T07:18:16;23.52;;;12.27;;
83781;SDS011;73783;49.924;15.466;2023-11-22T07:20:41;22.08;;;11.50;;
83781;SDS011;73783;49.924;15.466;2023-11-22T07:23:08;22.15;;;12.73;;
83781;SDS011;73783;49.924;15.466;2023-11-22T07:25:38;21.80;;;11.98;;
83781;SDS011;73783;49.924;15.466;2023-11-22T07:28:04;25.77;;;14.70;;
83781;SDS011;73783;49.924;15.466;2023-11-22T07:30:30;22.77;;;12.63;;
83781;SDS011;73783;49.924;15.466;2023-11-22T07:32:58;22.90;;;12.77;;
83781;SDS011;73783;49.924;15.466;2023-11-22T07:35:24;25.75;;;12.60;;
83781;SDS011;73783;49.924;15.466;2023-11-22T07:37:51;19.55;;;11.18;;
83781;SDS011;73783;49.924;15.466;2023-11-22T07:40:17;27.90;;;15.20;;
83781;SDS011;73783;49.924;15.466;2023-11-22T07:42:44;26.90;;;13.57;;
83781;SDS011;73783;49.924;15.466;2023-11-22T07:45:10;22.83;;;12.52;;
83781;SDS011;73783;49.924;15.466;2023-11-22T07:47:39;26.77;;;14.65;;
83781;SDS011;73783;49.924;15.466;2023-11-22T07:50:08;21.95;;;11.35;;
83781;SDS011;73783;49.924;15.466;2023-11-22T07:52:37;24.45;;;14.45;;
83781;SDS011;73783;49.924;15.466;2023-11-22T07:55:04;27.55;;;15.43;;
83781;SDS011;73783;49.924;15.466;2023-11-22T07:57:34;28.33;;;13.75;;
83781;SDS011;73783;49.924;15.466;2023-11-22T07:59:59;30.00;;;14.43;;
83781;SDS011;73783;49.924;15.466;2023-11-22T08:02:26;29.75;;;16.02;;
83781;SDS011;73783;49.924;15.466;2023-11-22T08:04:52;27.92;;;14.23;;
83781;SDS011;73783;49.924;15.466;2023-11-22T08:07:18;20.83;;;12.75;;
83781;SDS011;73783;49.924;15.466;2023-11-22T08:09:44;27.42;;;14.15;;
83781;SDS011;73783;49.924;15.466;2023-11-22T08:12:10;25.77;;;13.68;;
83781;SDS011;73783;49.924;15.466;2023-11-22T08:14:36;26.35;;;14.40;;
83781;SDS011;73783;49.924;15.466;2023-11-22T08:17:03;25.92;;;13.90;;
83781;SDS011;73783;49.924;15.466;2023-11-22T08:19:31;32.88;;;15.43;;
83781;SDS011;73783;49.924;15.466;2023-11-22T08:21:56;26.25;;;13.25;;
83781;SDS011;73783;49.924;15.466;2023-11-22T08:24:22;28.55;;;13.77;;
83781;SDS011;73783;49.924;15.466;2023-11-22T08:26:48;31.73;;;14.93;;
83781;SDS011;73783;49.924;15.466;2023-11-22T08:29:13;24.05;;;14.85;;
83781;SDS011;73783;49.924;15.466;2023-11-22T08:31:40;27.02;;;14.27;;
83781;SDS011;73783;49.924;15.466;2023-11-22T08:34:06;31.50;;;16.17;;
83781;SDS011;73783;49.924;15.466;2023-11-22T08:36:33;26.88;;;12.20;;
83781;SDS011;73783;49.924;15.466;2023-11-22T08:38:59;28.85;;;14.00;;
83781;SDS011;73783;49.924;15.466;2023-11-22T08:41:27;28.40;;;12.77;;
83781;SDS011;73783;49.924;15.466;2023-11-22T08:43:55;27.85;;;14.05;;
83781;SDS011;73783;49.924;15.466;2023-11-22T08:46:23;27.48;;;13.38;;
83781;SDS011;73783;49.924;15.466;2023-11-22T08:48:49;23.88;;;12.35;;
83781;SDS011;73783;49.924;15.466;2023-11-22T08:51:16;27.15;;;15.02;;
83781;SDS011;73783;49.924;15.466;2023-11-22T08:53:43;26.15;;;14.13;;
83781;SDS011;73783;49.924;15.466;2023-11-22T08:56:10;27.23;;;13.40;;
83781;SDS011;73783;49.924;15.466;2023-11-22T08:58:37;22.20;;;13.80;;
83781;SDS011;73783;49.924;15.466;2023-11-22T09:01:04;23.92;;;12.23;;
83781;SDS011;73783;49.924;15.466;2023-11-22T09:03:30;27.38;;;15.55;;
83781;SDS011;73783;49.924;15.466;2023-11-22T09:05:57;31.33;;;14.75;;
83781;SDS011;73783;49.924;15.466;2023-11-22T09:08:22;26.35;;;12.45;;
83781;SDS011;73783;49.924;15.466;2023-11-22T09:10:48;23.20;;;12.85;;
83781;SDS011;73783;49.924;15.466;2023-11-22T09:13:16;28.55;;;14.52;;
83781;SDS011;73783;49.924;15.466;2023-11-22T09:15:42;24.88;;;13.93;;
83781;SDS011;73783;49.924;15.466;2023-11-22T09:18:10;24.58;;;12.90;;
83781;SDS011;73783;49.924;15.466;2023-11-22T09:20:38;22.40;;;12.07;;
83781;SDS011;73783;49.924;15.466;2023-11-22T09:23:04;22.33;;;11.00;;
83781;SDS011;73783;49.924;15.466;2023-11-22T09:25:30;25.58;;;10.75;;
83781;SDS011;73783;49.924;15.466;2023-11-22T09:27:58;25.80;;;12.07;;
83781;SDS011;73783;49.924;15.466;2023-11-22T09:30:28;21.55;;;12.45;;
83781;SDS011;73783;49.924;15.466;2023-11-22T09:33:07;21.60;;;10.57;;
83781;SDS011;73783;49.924;15.466;2023-11-22T09:35:35;18.35;;;10.45;;
83781;SDS011;73783;49.924;15.466;2023-11-22T09:38:02;21.35;;;11.68;;
83781;SDS011;73783;49.924;15.466;2023-11-22T09:40:29;17.40;;;10.25;;
83781;SDS011;73783;49.924;15.466;2023-11-22T09:42:57;23.70;;;12.05;;
83781;SDS011;73783;49.924;15.466;2023-11-22T09:45:28;17.67;;;10.90;;
83781;SDS011;73783;49.924;15.466;2023-11-22T09:47:55;24.63;;;12.05;;
83781;SDS011;73783;49.924;15.466;2023-11-22T09:50:23;19.58;;;10.52;;
83781;SDS011;73783;49.924;15.466;2023-11-22T09:53:00;25.08;;;12.15;;
83781;SDS011;73783;49.924;15.466;2023-11-22T09:55:28;25.70;;;12.30;;
83781;SDS011;73783;49.924;15.466;2023-11-22T09:57:54;20.40;;;9.60;;
83781;SDS011;73783;49.924;15.466;2023-11-22T10:00:24;21.00;;;11.80;;
83781;SDS011;73783;49.924;15.466;2023-11-22T10:02:53;16.27;;;9.45;;
83781;SDS011;73783;49.924;15.466;2023-11-22T10:05:19;19.58;;;10.32;;
83781;SDS011;73783;49.924;15.466;2023-11-22T10:07:46;18.65;;;10.27;;
83781;SDS011;73783;49.924;15.466;2023-11-22T10:10:14;23.90;;;9.68;;
83781;SDS011;73783;49.924;15.466;2023-11-22T10:12:42;16.23;;;9.25;;
83781;SDS011;73783;49.924;15.466;2023-11-22T10:15:17;19.08;;;10.30;;
83781;SDS011;73783;49.924;15.466;2023-11-22T10:17:47;17.67;;;10.00;;
83781;SDS011;73783;49.924;15.466;2023-11-22T10:20:24;13.10;;;8.40;;
83781;SDS011;73783;49.924;15.466;2023-11-22T10:22:53;17.98;;;10.85;;
83781;SDS011;73783;49.924;15.466;2023-11-22T10:25:19;21.15;;;10.48;;
83781;SDS011;73783;49.924;15.466;2023-11-22T10:27:48;19.65;;;10.48;;
83781;SDS011;73783;49.924;15.466;2023-11-22T10:30:17;19.42;;;11.60;;
83781;SDS011;73783;49.924;15.466;2023-11-22T10:32:44;19.00;;;10.90;;
83781;SDS011;73783;49.924;15.466;2023-11-22T10:35:11;19.67;;;9.48;;
83781;SDS011;73783;49.924;15.466;2023-11-22T10:37:41;23.95;;;11.90;;
83781;SDS011;73783;49.924;15.466;2023-11-22T10:40:10;20.15;;;10.98;;
83781;SDS011;73783;49.924;15.466;2023-11-22T10:42:39;24.02;;;12.32;;
83781;SDS011;73783;49.924;15.466;2023-11-22T10:45:07;19.35;;;10.38;;
83781;SDS011;73783;49.924;15.466;2023-11-22T10:47:35;23.17;;;11.52;;
83781;SDS011;73783;49.924;15.466;2023-11-22T10:50:05;20.15;;;11.18;;
83781;SDS011;73783;49.924;15.466;2023-11-22T10:52:33;17.27;;;9.57;;
83781;SDS011;73783;49.924;15.466;2023-11-22T10:55:02;20.67;;;10.82;;
83781;SDS011;73783;49.924;15.466;2023-11-22T10:57:32;19.52;;;11.18;;
83781;SDS011;73783;49.924;15.466;2023-11-22T11:00:10;16.45;;;10.23;;
83781;SDS011;73783;49.924;15.466;2023-11-22T11:02:40;17.00;;;10.27;;
83781;SDS011;73783;49.924;15.466;2023-11-22T11:05:10;18.92;;;10.55;;
83781;SDS011;73783;49.924;15.466;2023-11-22T11:10:17;19.23;;;9.82;;
83781;SDS011;73783;49.924;15.466;2023-11-22T11:12:46;15.98;;;8.57;;
83781;SDS011;73783;49.924;15.466;2023-11-22T11:15:12;17.50;;;9.77;;
83781;SDS011;73783;49.924;15.466;2023-11-22T11:17:39;22.30;;;11.20;;
83781;SDS011;73783;49.924;15.466;2023-11-22T11:20:06;21.70;;;10.45;;
83781;SDS011;73783;49.924;15.466;2023-11-22T11:22:32;25.92;;;12.50;;
83781;SDS011;73783;49.924;15.466;2023-11-22T11:25:00;16.25;;;8.20;;
83781;SDS011;73783;49.924;15.466;2023-11-22T11:27:29;19.38;;;9.88;;
83781;SDS011;73783;49.924;15.466;2023-11-22T11:29:58;18.73;;;11.35;;
83781;SDS011;73783;49.924;15.466;2023-11-22T11:32:30;17.50;;;10.45;;
83781;SDS011;73783;49.924;15.466;2023-11-22T11:34:57;18.40;;;10.73;;
83781;SDS011;73783;49.924;15.466;2023-11-22T11:37:25;17.17;;;9.07;;
83781;SDS011;73783;49.924;15.466;2023-11-22T11:39:51;12.43;;;7.65;;
83781;SDS011;73783;49.924;15.466;2023-11-22T11:42:16;15.55;;;9.25;;
83781;SDS011;73783;49.924;15.466;2023-11-22T11:47:24;21.38;;;10.15;;
83781;SDS011;73783;49.924;15.466;2023-11-22T11:49:50;17.23;;;10.75;;
83781;SDS011;73783;49.924;15.466;2023-11-22T11:52:15;17.50;;;9.35;;
83781;SDS011;73783;49.924;15.466;2023-11-22T11:54:41;18.23;;;9.73;;
83781;SDS011;73783;49.924;15.466;2023-11-22T11:57:07;16.92;;;9.40;;
83781;SDS011;73783;49.924;15.466;2023-11-22T11:59:33;15.18;;;8.98;;
83781;SDS011;73783;49.924;15.466;2023-11-22T12:02:00;16.88;;;9.52;;
83781;SDS011;73783;49.924;15.466;2023-11-22T12:04:26;19.27;;;10.52;;
83781;SDS011;73783;49.924;15.466;2023-11-22T12:06:52;17.73;;;9.93;;
83781;SDS011;73783;49.924;15.466;2023-11-22T12:09:22;16.10;;;9.65;;
83781;SDS011;73783;49.924;15.466;2023-11-22T12:11:49;22.95;;;10.82;;
83781;SDS011;73783;49.924;15.466;2023-11-22T12:14:16;17.42;;;9.60;;
83781;SDS011;73783;49.924;15.466;2023-11-22T12:16:42;21.60;;;11.82;;
83781;SDS011;73783;49.924;15.466;2023-11-22T12:19:20;13.05;;;8.13;;
83781;SDS011;73783;49.924;15.466;2023-11-22T12:21:47;14.98;;;9.18;;
83781;SDS011;73783;49.924;15.466;2023-11-22T12:24:14;16.20;;;9.65;;
83781;SDS011;73783;49.924;15.466;2023-11-22T12:26:44;13.55;;;8.38;;
83781;SDS011;73783;49.924;15.466;2023-11-22T12:29:13;16.15;;;9.40;;
83781;SDS011;73783;49.924;15.466;2023-11-22T12:31:49;17.38;;;8.65;;
83781;SDS011;73783;49.924;15.466;2023-11-22T12:34:18;20.58;;;10.27;;
83781;SDS011;73783;49.924;15.466;2023-11-22T12:36:45;19.35;;;10.15;;
83781;SDS011;73783;49.924;15.466;2023-11-22T12:39:12;15.98;;;10.68;;
83781;SDS011;73783;49.924;15.466;2023-11-22T12:41:51;17.42;;;10.85;;
83781;SDS011;73783;49.924;15.466;2023-11-22T12:44:18;14.48;;;9.15;;
83781;SDS011;73783;49.924;15.466;2023-11-22T12:49:22;18.25;;;9.43;;
83781;SDS011;73783;49.924;15.466;2023-11-22T12:51:49;15.65;;;9.15;;
83781;SDS011;73783;49.924;15.466;2023-11-22T12:54:15;17.75;;;9.07;;
83781;SDS011;73783;49.924;15.466;2023-11-22T12:56:41;15.90;;;9.05;;
83781;SDS011;73783;49.924;15.466;2023-11-22T12:59:08;14.95;;;9.00;;
83781;SDS011;73783;49.924;15.466;2023-11-22T13:01:34;16.35;;;8.27;;
83781;SDS011;73783;49.924;15.466;2023-11-22T13:04:00;14.63;;;9.18;;
83781;SDS011;73783;49.924;15.466;2023-11-22T13:06:26;14.68;;;9.07;;
83781;SDS011;73783;49.924;15.466;2023-11-22T13:08:52;14.75;;;9.30;;
83781;SDS011;73783;49.924;15.466;2023-11-22T13:11:20;16.48;;;9.00;;
83781;SDS011;73783;49.924;15.466;2023-11-22T13:13:46;15.98;;;9.98;;
83781;SDS011;73783;49.924;15.466;2023-11-22T13:16:12;15.65;;;8.00;;
83781;SDS011;73783;49.924;15.466;2023-11-22T13:18:39;14.52;;;8.23;;
83781;SDS011;73783;49.924;15.466;2023-11-22T13:21:05;11.27;;;8.00;;
83781;SDS011;73783;49.924;15.466;2023-11-22T13:23:31;12.07;;;7.70;;
83781;SDS011;73783;49.924;15.466;2023-11-22T13:25:58;14.82;;;9.55;;
83781;SDS011;73783;49.924;15.466;2023-11-22T13:28:24;14.77;;;8.02;;
83781;SDS011;73783;49.924;15.466;2023-11-22T13:30:50;12.25;;;8.25;;
83781;SDS011;73783;49.924;15.466;2023-11-22T13:33:17;15.82;;;8.23;;
83781;SDS011;73783;49.924;15.466;2023-11-22T13:35:42;15.20;;;8.52;;
83781;SDS011;73783;49.924;15.466;2023-11-22T13:38:09;11.43;;;7.88;;
83781;SDS011;73783;49.924;15.466;2023-11-22T13:40:38;12.35;;;8.23;;
83781;SDS011;73783;49.924;15.466;2023-11-22T13:43:06;17.77;;;8.90;;
83781;SDS011;73783;49.924;15.466;2023-11-22T13:45:31;16.13;;;8.73;;
83781;SDS011;73783;49.924;15.466;2023-11-22T13:47:58;13.25;;;8.45;;
83781;SDS011;73783;49.924;15.466;2023-11-22T13:50:31;14.60;;;8.63;;
83781;SDS011;73783;49.924;15.466;2023-11-22T13:52:58;12.27;;;7.93;;
83781;SDS011;73783;49.924;15.466;2023-11-22T13:55:24;15.32;;;8.98;;
83781;SDS011;73783;49.924;15.466;2023-11-22T14:00:17;16.15;;;7.95;;
83781;SDS011;73783;49.924;15.466;2023-11-22T14:02:50;14.00;;;8.45;;
83781;SDS011;73783;49.924;15.466;2023-11-22T14:05:18;15.15;;;8.20;;
83781;SDS011;73783;49.924;15.466;2023-11-22T14:07:44;16.20;;;9.02;;
83781;SDS011;73783;49.924;15.466;2023-11-22T14:10:10;16.15;;;8.45;;
83781;SDS011;73783;49.924;15.466;2023-11-22T14:12:36;13.05;;;7.47;;
83781;SDS011;73783;49.924;15.466;2023-11-22T14:15:03;12.32;;;8.30;;
83781;SDS011;73783;49.924;15.466;2023-11-22T14:17:30;15.77;;;8.05;;
83781;SDS011;73783;49.924;15.466;2023-11-22T14:19:55;17.88;;;9.15;;
83781;SDS011;73783;49.924;15.466;2023-11-22T14:22:22;15.73;;;8.48;;
83781;SDS011;73783;49.924;15.466;2023-11-22T14:24:51;16.42;;;8.68;;